createdAt,value
2022-09-28T00:02:18.998Z,98736.55
2022-09-28T00:05:47.326Z,98738.54
2022-09-28T00:09:14.562Z,98738.02
2022-09-28T00:12:42.063Z,98740.48
2022-09-28T00:16:12.209Z,98738.90
2022-09-28T00:19:39.339Z,98735.00
2022-09-28T00:23:06.249Z,98731.59
2022-09-28T00:26:34.672Z,98730.79
2022-09-28T00:30:02.072Z,98729.27
2022-09-28T00:33:29.216Z,98724.53
2022-09-28T00:36:56.511Z,98722.20
2022-09-28T00:40:23.615Z,98721.52
2022-09-28T00:43:51.171Z,98719.79
2022-09-28T00:47:39.424Z,98713.18
2022-09-28T00:51:11.935Z,98712.02
2022-09-28T00:54:42.862Z,98712.29
2022-09-28T00:58:14.747Z,98715.72
2022-09-28T01:01:44.065Z,98717.11
2022-09-28T01:05:12.984Z,98716.18
2022-09-28T01:08:41.069Z,98710.33
2022-09-28T01:12:09.555Z,98710.02
2022-09-28T01:15:44.901Z,98697.63
2022-09-28T01:19:33.931Z,98704.97
2022-09-28T01:23:27.228Z,98703.82
2022-09-28T01:27:15.390Z,98697.48
2022-09-28T01:30:49.062Z,98702.23
2022-09-28T01:34:21.212Z,98708.19
2022-09-28T01:37:54.434Z,98708.20
2022-09-28T01:41:24.052Z,98709.05
2022-09-28T01:44:55.007Z,98712.38
2022-09-28T01:48:31.512Z,98713.33
2022-09-28T01:52:03.803Z,98712.47
2022-09-28T01:55:35.750Z,98712.92
2022-09-28T01:59:08.395Z,98715.70
2022-09-28T02:02:41.043Z,98713.05
2022-09-28T02:06:15.968Z,98713.36
2022-09-28T02:09:47.955Z,98713.59
2022-09-28T02:13:20.120Z,98714.20
2022-09-28T02:16:49.394Z,98715.57
2022-09-28T02:20:17.620Z,98719.91
2022-09-28T02:23:54.249Z,98716.84
2022-09-28T02:27:30.401Z,98711.95
2022-09-28T02:30:57.323Z,98704.42
2022-09-28T02:34:24.374Z,98704.32
2022-09-28T02:37:52.325Z,98701.47
2022-09-28T02:41:34.913Z,98694.91
2022-09-28T02:45:19.077Z,98696.20
2022-09-28T02:49:10.585Z,98695.56
2022-09-28T02:53:00.949Z,98695.13
2022-09-28T02:56:46.432Z,98692.85
2022-09-28T03:00:17.994Z,98690.55
2022-09-28T03:03:52.369Z,98693.83
2022-09-28T03:07:26.845Z,98693.48
2022-09-28T03:11:01.041Z,98691.11
2022-09-28T03:14:28.073Z,98695.63
2022-09-28T03:17:57.495Z,98698.96
2022-09-28T03:21:25.065Z,98693.84
2022-09-28T03:24:52.226Z,98686.89
2022-09-28T03:28:19.119Z,98690.84
2022-09-28T03:31:49.428Z,98691.66
2022-09-28T03:35:37.174Z,98692.17
2022-09-28T03:39:12.952Z,98693.61
2022-09-28T03:42:45.231Z,98691.19
2022-09-28T03:46:12.464Z,98695.08
2022-09-28T03:49:43.280Z,98697.64
2022-09-28T03:53:11.014Z,98694.27
2022-09-28T03:56:38.194Z,98695.48
2022-09-28T04:00:05.662Z,98693.25
2022-09-28T04:03:40.466Z,98689.15
2022-09-28T04:07:07.411Z,98697.67
2022-09-28T04:10:34.500Z,98705.92
2022-09-28T04:14:02.278Z,98704.55
2022-09-28T04:17:30.471Z,98695.79
2022-09-28T04:21:12.117Z,98695.17
2022-09-28T04:25:00.226Z,98701.03
2022-09-28T04:28:46.779Z,98698.15
2022-09-28T04:32:14.490Z,98700.89
2022-09-28T04:35:41.624Z,98704.15
2022-09-28T04:39:09.488Z,98701.96
2022-09-28T04:42:37.473Z,98701.95
2022-09-28T04:46:06.642Z,98700.44
2022-09-28T04:49:42.970Z,98705.14
2022-09-28T04:53:25.913Z,98701.25
2022-09-28T04:56:53.617Z,98701.08
2022-09-28T05:00:20.601Z,98701.70
2022-09-28T05:04:03.336Z,98700.41
2022-09-28T05:07:46.220Z,98693.05
2022-09-28T05:11:16.204Z,98694.70
2022-09-28T05:14:43.254Z,98702.92
2022-09-28T05:18:19.938Z,98709.39
2022-09-28T05:22:00.776Z,98707.40
2022-09-28T05:25:27.664Z,98703.04
2022-09-28T05:29:16.653Z,98705.10
2022-09-28T05:33:06.722Z,98707.42
2022-09-28T05:36:53.854Z,98710.66
2022-09-28T05:40:20.890Z,98707.17
2022-09-28T05:43:49.097Z,98712.86
2022-09-28T05:47:15.843Z,98712.86
2022-09-28T05:50:43.793Z,98713.20
2022-09-28T05:54:10.195Z,98707.91
2022-09-28T05:57:41.391Z,98708.67
2022-09-28T06:01:08.178Z,98707.20
2022-09-28T06:04:35.755Z,98707.95
2022-09-28T06:08:04.547Z,98706.73
2022-09-28T06:11:34.233Z,98705.45
2022-09-28T06:15:11.855Z,98707.09
2022-09-28T06:18:38.764Z,98705.71
2022-09-28T06:23:01.960Z,98704.55
2022-09-28T06:26:24.077Z,98709.42
2022-09-28T06:29:50.704Z,98708.45
2022-09-28T06:38:11.689Z,98707.55
2022-09-28T06:41:40.145Z,98704.23
2022-09-28T06:45:16.282Z,98700.45
2022-09-28T06:48:50.932Z,98703.29
2022-09-28T06:52:23.400Z,98701.30
2022-09-28T06:56:14.857Z,98706.42
2022-09-28T06:59:42.130Z,98709.09
2022-09-28T07:03:13.789Z,98713.58
2022-09-28T07:07:16.184Z,98719.11
2022-09-28T07:11:06.428Z,98721.14
2022-09-28T07:15:16.105Z,98721.55
2022-09-28T07:18:44.511Z,98724.30
2022-09-28T07:22:18.433Z,98729.51
2022-09-28T07:25:49.482Z,98728.94
2022-09-28T07:29:33.967Z,98727.88
2022-09-28T07:33:23.175Z,98726.10
2022-09-28T07:36:59.719Z,98727.59
2022-09-28T07:40:48.185Z,98727.27
2022-09-28T07:44:17.749Z,98723.51
2022-09-28T07:47:53.056Z,98718.33
2022-09-28T07:51:57.978Z,98724.16
2022-09-28T07:55:48.025Z,98725.32
2022-09-28T07:59:32.052Z,98726.55
2022-09-28T08:03:19.205Z,98732.83
2022-09-28T08:06:46.358Z,98724.96
2022-09-28T08:15:40.919Z,98728.52
2022-09-28T08:19:23.016Z,98728.70
2022-09-28T08:22:50.153Z,98732.70
2022-09-28T08:26:17.473Z,98735.10
2022-09-28T08:29:45.422Z,98739.35
2022-09-28T08:33:31.039Z,98739.06
2022-09-28T08:37:16.765Z,98743.29
2022-09-28T08:41:08.685Z,98744.11
2022-09-28T08:44:56.008Z,98748.31
2022-09-28T08:49:23.815Z,98743.23
2022-09-28T08:53:02.387Z,98745.48
2022-09-28T08:56:57.865Z,98742.77
2022-09-28T09:00:37.245Z,98748.34
2022-09-28T09:04:09.342Z,98748.52
2022-09-28T09:08:14.079Z,98745.45
2022-09-28T09:11:58.672Z,98748.02
2022-09-28T09:19:13.068Z,98752.63
2022-09-28T09:23:00.777Z,98749.56
2022-09-28T09:26:39.582Z,98745.98
2022-09-28T09:30:19.566Z,98748.77
2022-09-28T09:34:13.968Z,98748.14
2022-09-28T09:38:17.863Z,98748.56
2022-09-28T09:42:22.423Z,98758.40
2022-09-28T09:46:18.601Z,98764.21
2022-09-28T09:50:05.467Z,98761.08
2022-09-28T09:53:43.828Z,98765.05
2022-09-28T09:57:18.480Z,98766.19
2022-09-28T10:01:08.665Z,98757.86
2022-09-28T10:04:59.538Z,98770.31
2022-09-28T10:08:36.053Z,98765.14
2022-09-28T10:12:04.250Z,98764.31
2022-09-28T10:15:33.192Z,98767.32
2022-09-28T10:19:13.772Z,98764.30
2022-09-28T10:23:08.405Z,98764.36
2022-09-28T10:26:40.656Z,98765.54
2022-09-28T10:30:24.234Z,98747.38
2022-09-28T10:33:54.723Z,98749.84
2022-09-28T10:37:24.528Z,98744.22
2022-09-28T10:41:23.935Z,98739.70
2022-09-28T10:45:01.254Z,98738.80
2022-09-28T10:48:47.798Z,98734.05
2022-09-28T10:52:33.761Z,98737.29
2022-09-28T10:56:24.572Z,98732.29
2022-09-28T10:59:56.269Z,98732.30
2022-09-28T11:03:29.461Z,98733.80
2022-09-28T11:07:02.210Z,98723.95
2022-09-28T11:10:33.256Z,98716.05
2022-09-28T11:14:37.127Z,98714.14
2022-09-28T11:18:28.445Z,98711.45
2022-09-28T11:21:56.158Z,98709.56
2022-09-28T11:25:33.255Z,98712.73
2022-09-28T11:29:00.871Z,98713.22
2022-09-28T11:32:49.239Z,98714.90
2022-09-28T11:36:32.963Z,98718.20
2022-09-28T11:40:11.532Z,98717.20
2022-09-28T11:43:57.529Z,98718.77
2022-09-28T11:47:39.531Z,98719.35
2022-09-28T11:51:13.060Z,98715.33
2022-09-28T11:54:47.746Z,98704.27
2022-09-28T11:58:22.715Z,98697.80
2022-09-28T12:01:54.831Z,98703.52
2022-09-28T12:05:51.314Z,98709.71
2022-09-28T12:09:26.375Z,98714.50
2022-09-28T12:13:04.962Z,98712.05
2022-09-28T12:20:28.669Z,98713.34
2022-09-28T12:23:58.747Z,98711.87
2022-09-28T12:27:32.233Z,98714.81
2022-09-28T12:31:09.258Z,98716.17
2022-09-28T12:34:36.958Z,98714.73
2022-09-28T12:38:25.010Z,98713.05
2022-09-28T12:42:09.880Z,98711.23
2022-09-28T12:46:12.067Z,98715.88
2022-09-28T12:54:21.037Z,98710.00
2022-09-28T12:58:09.173Z,98708.23
2022-09-28T13:02:03.815Z,98708.27
2022-09-28T13:06:19.372Z,98703.30
2022-09-28T13:10:01.916Z,98696.46
2022-09-28T13:13:46.900Z,98698.52
2022-09-28T13:17:28.359Z,98694.38
2022-09-28T13:21:06.398Z,98692.30
2022-09-28T13:24:47.239Z,98695.35
2022-09-28T13:28:16.962Z,98695.32
2022-09-28T13:31:50.835Z,98693.64
2022-09-28T13:35:23.497Z,98690.88
2022-09-28T13:38:52.597Z,98692.61
2022-09-28T13:42:44.578Z,98696.66
2022-09-28T13:46:22.535Z,98699.34
2022-09-28T13:50:02.161Z,98697.73
2022-09-28T13:53:42.340Z,98696.40
2022-09-28T13:57:19.983Z,98696.17
2022-09-28T14:00:52.103Z,98696.55
2022-09-28T14:04:22.685Z,98690.09
2022-09-28T14:08:29.395Z,98693.91
2022-09-28T14:12:01.534Z,98688.30
2022-09-28T14:15:47.304Z,98685.86
2022-09-28T14:19:20.943Z,98682.77
2022-09-28T14:23:11.713Z,98688.63
2022-09-28T14:27:15.015Z,98688.37
2022-09-28T14:30:56.210Z,98688.15
2022-09-28T14:34:42.502Z,98687.37
2022-09-28T14:38:36.294Z,98686.09
2022-09-28T14:42:13.071Z,98684.41
2022-09-28T14:45:44.534Z,98688.02
2022-09-28T14:49:41.595Z,98692.03
2022-09-28T14:53:18.269Z,98688.55
2022-09-28T14:56:59.421Z,98686.06
2022-09-28T15:00:32.247Z,98687.30
2022-09-28T15:04:06.092Z,98690.46
2022-09-28T15:07:47.306Z,98691.34
2022-09-28T15:11:21.683Z,98689.88
2022-09-28T15:14:53.319Z,98690.51
2022-09-28T15:18:49.715Z,98687.81
2022-09-28T15:22:22.604Z,98689.54
2022-09-28T15:25:56.325Z,98689.83
2022-09-28T15:29:31.439Z,98692.66
2022-09-28T15:33:24.584Z,98694.02
2022-09-28T15:36:57.891Z,98696.60
2022-09-28T15:40:33.851Z,98691.23
2022-09-28T15:44:37.266Z,98694.62
2022-09-28T15:48:31.243Z,98695.33
2022-09-28T15:52:03.265Z,98692.64
2022-09-28T15:55:34.047Z,98693.98
2022-09-28T15:59:26.939Z,98692.02
2022-09-28T16:03:19.039Z,98689.28
2022-09-28T16:06:46.746Z,98693.64
2022-09-28T16:10:37.591Z,98692.46
2022-09-28T16:14:21.410Z,98698.51
2022-09-28T16:17:55.706Z,98697.89
2022-09-28T16:21:43.688Z,98698.71
2022-09-28T16:25:27.661Z,98708.41
2022-09-28T16:28:56.656Z,98716.45
2022-09-28T16:32:49.787Z,98725.05
2022-09-28T16:36:18.681Z,98723.41
2022-09-28T16:39:45.877Z,98727.17
2022-09-28T16:43:27.969Z,98728.92
2022-09-28T16:47:01.280Z,98729.61
2022-09-28T16:50:40.759Z,98731.89
2022-09-28T16:54:36.998Z,98735.32
2022-09-28T16:58:09.324Z,98738.46
2022-09-28T17:01:44.471Z,98744.30
2022-09-28T17:05:24.153Z,98749.02
2022-09-28T17:08:59.266Z,98755.98
2022-09-28T17:12:30.495Z,98748.32
2022-09-28T17:16:01.862Z,98747.80
2022-09-28T17:19:32.243Z,98745.23
2022-09-28T17:23:01.604Z,98746.75
2022-09-28T17:26:35.019Z,98744.81
2022-09-28T17:30:02.010Z,98746.83
2022-09-28T17:33:30.129Z,98746.31
2022-09-28T17:36:58.208Z,98745.77
2022-09-28T17:40:28.735Z,98751.39
2022-09-28T17:43:56.539Z,98753.88
2022-09-28T17:47:23.187Z,98753.23
2022-09-28T17:50:51.465Z,98749.72
2022-09-28T17:54:20.966Z,98749.39
2022-09-28T17:57:49.163Z,98751.77
2022-09-28T18:01:16.355Z,98751.75
2022-09-28T18:04:52.046Z,98748.77
2022-09-28T18:08:25.075Z,98752.27
2022-09-28T18:12:00.760Z,98755.93
2022-09-28T18:15:32.775Z,98766.65
2022-09-28T18:19:02.262Z,98764.53
2022-09-28T18:22:47.215Z,98762.28
2022-09-28T18:26:20.834Z,98765.11
2022-09-28T18:29:49.854Z,98770.69
2022-09-28T18:33:21.224Z,98773.55
2022-09-28T18:36:50.386Z,98772.92
2022-09-28T18:40:18.181Z,98774.26
2022-09-28T18:43:50.528Z,98775.07
2022-09-28T18:47:23.881Z,98772.88
2022-09-28T18:50:51.813Z,98768.10
2022-09-28T18:54:21.910Z,98770.75
2022-09-28T18:57:51.760Z,98773.47
2022-09-28T19:01:36.551Z,98774.36
2022-09-28T19:05:07.273Z,98776.46
2022-09-28T19:08:34.164Z,98777.66
2022-09-28T19:12:06.547Z,98777.50
2022-09-28T19:15:41.915Z,98777.77
2022-09-28T19:19:12.163Z,98781.95
2022-09-28T19:22:40.100Z,98784.83
2022-09-28T19:26:11.520Z,98792.08
2022-09-28T19:29:39.174Z,98796.61
2022-09-28T19:33:07.285Z,98800.38
2022-09-28T19:36:36.770Z,98800.05
2022-09-28T19:40:06.117Z,98801.42
2022-09-28T19:43:48.720Z,98798.22
2022-09-28T19:47:21.943Z,98800.60
2022-09-28T19:51:02.264Z,98802.65
2022-09-28T19:54:36.412Z,98801.25
2022-09-28T19:58:07.158Z,98802.13
2022-09-28T20:01:35.301Z,98798.62
2022-09-28T20:05:03.301Z,98800.95
2022-09-28T20:08:34.125Z,98800.23
2022-09-28T20:12:07.240Z,98801.08
2022-09-28T20:15:37.804Z,98803.14
2022-09-28T20:19:07.738Z,98803.52
2022-09-28T20:22:35.410Z,98806.41
2022-09-28T20:26:10.430Z,98804.57
2022-09-28T20:29:39.612Z,98803.21
2022-09-28T20:33:15.703Z,98801.90
2022-09-28T20:36:49.360Z,98806.45
2022-09-28T20:40:20.599Z,98803.64
2022-09-28T20:43:50.920Z,98805.46
2022-09-28T20:47:22.224Z,98803.95
2022-09-28T20:51:06.250Z,98804.21
2022-09-28T20:54:38.361Z,98805.20
2022-09-28T20:58:09.132Z,98804.05
2022-09-28T21:01:36.734Z,98804.12
2022-09-28T21:05:08.451Z,98805.44
2022-09-28T21:08:37.753Z,98804.63
2022-09-28T21:12:07.497Z,98804.83
2022-09-28T21:15:42.376Z,98805.15
2022-09-28T21:19:11.780Z,98808.86
2022-09-28T21:22:40.400Z,98807.21
2022-09-28T21:26:25.890Z,98810.73
2022-09-28T21:29:56.772Z,98813.06
2022-09-28T21:33:24.652Z,98813.27
2022-09-28T21:36:55.297Z,98816.05
2022-09-28T21:40:24.434Z,98823.01
2022-09-28T21:43:52.455Z,98823.02
2022-09-28T21:47:19.518Z,98825.77
2022-09-28T21:50:59.046Z,98825.89
2022-09-28T21:54:30.712Z,98825.72
2022-09-28T21:58:01.480Z,98829.16
2022-09-28T22:01:33.056Z,98832.88
2022-09-28T22:05:01.292Z,98837.92
2022-09-28T22:08:28.534Z,98841.93
2022-09-28T22:11:57.722Z,98846.45
2022-09-28T22:15:25.643Z,98849.97
2022-09-28T22:18:53.705Z,98855.23
2022-09-28T22:22:26.129Z,98857.70
2022-09-28T22:26:01.411Z,98858.09
2022-09-28T22:29:28.669Z,98858.60
2022-09-28T22:32:55.493Z,98864.16
2022-09-28T22:36:25.845Z,98869.35
2022-09-28T22:39:53.964Z,98873.20
2022-09-28T22:43:21.322Z,98880.09
2022-09-28T22:47:15.422Z,98883.56
2022-09-28T22:50:48.858Z,98885.88
2022-09-28T22:54:16.775Z,98886.27
2022-09-28T22:57:47.620Z,98886.65
2022-09-28T23:01:17.607Z,98881.67
2022-09-28T23:04:48.579Z,98879.89
2022-09-28T23:08:15.253Z,98883.98
2022-09-28T23:11:42.657Z,98885.64
2022-09-28T23:15:11.879Z,98887.71
2022-09-28T23:18:41.329Z,98887.33
2022-09-28T23:22:07.886Z,98890.69
2022-09-28T23:25:34.318Z,98892.05
2022-09-28T23:29:00.959Z,98887.36
2022-09-28T23:32:31.885Z,98889.61
2022-09-28T23:36:02.153Z,98891.20
2022-09-28T23:39:29.495Z,98893.84
2022-09-28T23:42:56.245Z,98893.52
2022-09-28T23:46:23.135Z,98895.23
2022-09-28T23:49:50.056Z,98893.48
2022-09-28T23:53:17.651Z,98892.91
2022-09-28T23:56:44.370Z,98893.02
